sensor_id;sensor_type;location;lat;lon;timestamp;P1;durP1;ratioP1;P2;durP2;ratioP2
18162;SDS011;9206;50.994;4.538;2023-09-30T00:00:36;6.40;;;4.93;;
18162;SDS011;9206;50.994;4.538;2023-09-30T00:03:24;6.13;;;4.20;;
18162;SDS011;9206;50.994;4.538;2023-09-30T00:06:17;7.53;;;5.43;;
18162;SDS011;9206;50.994;4.538;2023-09-30T00:09:10;5.80;;;4.60;;
18162;SDS011;9206;50.994;4.538;2023-09-30T00:17:41;4.87;;;4.07;;
18162;SDS011;9206;50.994;4.538;2023-09-30T00:20:31;8.57;;;4.30;;
18162;SDS011;9206;50.994;4.538;2023-09-30T00:23:18;6.03;;;5.00;;
18162;SDS011;9206;50.994;4.538;2023-09-30T00:26:13;4.80;;;4.40;;
18162;SDS011;9206;50.994;4.538;2023-09-30T00:29:09;5.63;;;4.83;;
18162;SDS011;9206;50.994;4.538;2023-09-30T00:31:58;4.77;;;4.37;;
18162;SDS011;9206;50.994;4.538;2023-09-30T00:34:46;6.63;;;4.33;;
18162;SDS011;9206;50.994;4.538;2023-09-30T00:37:38;5.70;;;5.20;;
18162;SDS011;9206;50.994;4.538;2023-09-30T00:40:31;3.90;;;3.70;;
18162;SDS011;9206;50.994;4.538;2023-09-30T00:43:20;5.47;;;5.00;;
18162;SDS011;9206;50.994;4.538;2023-09-30T00:46:17;7.10;;;5.17;;
18162;SDS011;9206;50.994;4.538;2023-09-30T00:58:33;7.17;;;5.23;;
18162;SDS011;9206;50.994;4.538;2023-09-30T01:01:41;5.47;;;4.97;;
18162;SDS011;9206;50.994;4.538;2023-09-30T01:04:32;4.80;;;4.30;;
18162;SDS011;9206;50.994;4.538;2023-09-30T01:10:21;5.43;;;4.97;;
18162;SDS011;9206;50.994;4.538;2023-09-30T01:13:22;5.83;;;4.90;;
18162;SDS011;9206;50.994;4.538;2023-09-30T01:16:33;5.03;;;4.60;;
18162;SDS011;9206;50.994;4.538;2023-09-30T01:25:09;5.30;;;4.83;;
18162;SDS011;9206;50.994;4.538;2023-09-30T01:27:58;5.17;;;4.60;;
18162;SDS011;9206;50.994;4.538;2023-09-30T01:30:52;5.03;;;4.57;;
18162;SDS011;9206;50.994;4.538;2023-09-30T01:33:43;4.70;;;4.30;;
18162;SDS011;9206;50.994;4.538;2023-09-30T01:36:36;5.27;;;4.80;;
18162;SDS011;9206;50.994;4.538;2023-09-30T01:39:31;4.83;;;4.10;;
18162;SDS011;9206;50.994;4.538;2023-09-30T01:42:19;5.47;;;4.57;;
18162;SDS011;9206;50.994;4.538;2023-09-30T01:45:09;4.70;;;4.33;;
18162;SDS011;9206;50.994;4.538;2023-09-30T01:48:03;4.03;;;3.73;;
18162;SDS011;9206;50.994;4.538;2023-09-30T01:50:50;4.83;;;4.43;;
18162;SDS011;9206;50.994;4.538;2023-09-30T01:53:41;5.67;;;4.70;;
18162;SDS011;9206;50.994;4.538;2023-09-30T01:59:21;4.67;;;4.37;;
18162;SDS011;9206;50.994;4.538;2023-09-30T02:02:11;5.63;;;4.40;;
18162;SDS011;9206;50.994;4.538;2023-09-30T02:04:58;5.63;;;4.60;;
18162;SDS011;9206;50.994;4.538;2023-09-30T02:07:49;4.67;;;4.37;;
18162;SDS011;9206;50.994;4.538;2023-09-30T02:13:33;4.60;;;4.30;;
18162;SDS011;9206;50.994;4.538;2023-09-30T02:16:21;4.93;;;4.47;;
18162;SDS011;9206;50.994;4.538;2023-09-30T02:19:13;4.77;;;4.10;;
18162;SDS011;9206;50.994;4.538;2023-09-30T02:22:03;7.33;;;4.10;;
18162;SDS011;9206;50.994;4.538;2023-09-30T02:24:52;5.07;;;4.70;;
18162;SDS011;9206;50.994;4.538;2023-09-30T02:30:38;5.13;;;4.40;;
18162;SDS011;9206;50.994;4.538;2023-09-30T02:33:34;5.70;;;4.30;;
18162;SDS011;9206;50.994;4.538;2023-09-30T02:36:22;4.83;;;4.43;;
18162;SDS011;9206;50.994;4.538;2023-09-30T02:39:18;4.60;;;4.23;;
18162;SDS011;9206;50.994;4.538;2023-09-30T02:42:17;4.80;;;4.40;;
18162;SDS011;9206;50.994;4.538;2023-09-30T02:48:04;5.10;;;4.60;;
18162;SDS011;9206;50.994;4.538;2023-09-30T02:50:54;5.10;;;4.70;;
18162;SDS011;9206;50.994;4.538;2023-09-30T02:53:41;4.00;;;3.70;;
18162;SDS011;9206;50.994;4.538;2023-09-30T02:56:35;5.20;;;4.90;;
18162;SDS011;9206;50.994;4.538;2023-09-30T02:59:25;5.63;;;4.37;;
18162;SDS011;9206;50.994;4.538;2023-09-30T03:02:13;5.70;;;4.27;;
18162;SDS011;9206;50.994;4.538;2023-09-30T03:05:02;4.83;;;4.50;;
18162;SDS011;9206;50.994;4.538;2023-09-30T03:07:52;5.00;;;4.50;;
18162;SDS011;9206;50.994;4.538;2023-09-30T03:13:31;5.63;;;4.60;;
18162;SDS011;9206;50.994;4.538;2023-09-30T03:16:22;5.57;;;4.70;;
18162;SDS011;9206;50.994;4.538;2023-09-30T03:19:10;5.30;;;4.80;;
18162;SDS011;9206;50.994;4.538;2023-09-30T03:21:59;5.27;;;4.40;;
18162;SDS011;9206;50.994;4.538;2023-09-30T03:24:56;6.87;;;4.13;;
18162;SDS011;9206;50.994;4.538;2023-09-30T03:27:47;4.80;;;4.43;;
18162;SDS011;9206;50.994;4.538;2023-09-30T03:30:40;6.97;;;4.77;;
18162;SDS011;9206;50.994;4.538;2023-09-30T03:33:37;5.03;;;4.60;;
18162;SDS011;9206;50.994;4.538;2023-09-30T03:36:27;4.63;;;4.30;;
18162;SDS011;9206;50.994;4.538;2023-09-30T03:39:26;7.90;;;5.37;;
18162;SDS011;9206;50.994;4.538;2023-09-30T03:42:13;5.63;;;4.83;;
18162;SDS011;9206;50.994;4.538;2023-09-30T03:45:12;5.73;;;5.17;;
18162;SDS011;9206;50.994;4.538;2023-09-30T03:47:59;5.03;;;4.70;;
18162;SDS011;9206;50.994;4.538;2023-09-30T03:50:54;5.87;;;5.33;;
18162;SDS011;9206;50.994;4.538;2023-09-30T03:53:45;8.17;;;6.23;;
18162;SDS011;9206;50.994;4.538;2023-09-30T03:56:37;4.33;;;4.03;;
18162;SDS011;9206;50.994;4.538;2023-09-30T03:59:31;6.73;;;5.03;;
18162;SDS011;9206;50.994;4.538;2023-09-30T04:02:27;5.83;;;5.37;;
18162;SDS011;9206;50.994;4.538;2023-09-30T04:05:14;6.13;;;5.53;;
18162;SDS011;9206;50.994;4.538;2023-09-30T04:08:05;6.83;;;6.23;;
18162;SDS011;9206;50.994;4.538;2023-09-30T04:10:58;10.17;;;5.97;;
18162;SDS011;9206;50.994;4.538;2023-09-30T04:13:48;6.30;;;5.73;;
18162;SDS011;9206;50.994;4.538;2023-09-30T04:16:40;7.77;;;6.13;;
18162;SDS011;9206;50.994;4.538;2023-09-30T04:19:28;9.37;;;7.63;;
18162;SDS011;9206;50.994;4.538;2023-09-30T04:22:21;8.93;;;7.17;;
18162;SDS011;9206;50.994;4.538;2023-09-30T04:25:11;16.80;;;5.97;;
18162;SDS011;9206;50.994;4.538;2023-09-30T04:31:02;11.27;;;6.90;;
18162;SDS011;9206;50.994;4.538;2023-09-30T04:33:56;6.70;;;6.03;;
18162;SDS011;9206;50.994;4.538;2023-09-30T04:36:58;8.57;;;6.53;;
18162;SDS011;9206;50.994;4.538;2023-09-30T04:39:49;7.40;;;6.60;;
18162;SDS011;9206;50.994;4.538;2023-09-30T04:45:29;13.60;;;6.97;;
18162;SDS011;9206;50.994;4.538;2023-09-30T04:48:22;10.80;;;7.03;;
18162;SDS011;9206;50.994;4.538;2023-09-30T04:51:23;8.23;;;5.77;;
18162;SDS011;9206;50.994;4.538;2023-09-30T04:54:17;6.10;;;5.60;;
18162;SDS011;9206;50.994;4.538;2023-09-30T05:03:12;8.30;;;5.90;;
18162;SDS011;9206;50.994;4.538;2023-09-30T05:06:07;8.17;;;5.83;;
18162;SDS011;9206;50.994;4.538;2023-09-30T05:08:55;9.70;;;5.67;;
18162;SDS011;9206;50.994;4.538;2023-09-30T05:11:45;6.50;;;5.90;;
18162;SDS011;9206;50.994;4.538;2023-09-30T05:14:38;10.17;;;6.73;;
18162;SDS011;9206;50.994;4.538;2023-09-30T05:17:26;10.93;;;6.80;;
18162;SDS011;9206;50.994;4.538;2023-09-30T05:20:18;7.73;;;6.30;;
18162;SDS011;9206;50.994;4.538;2023-09-30T05:23:12;5.47;;;5.17;;
18162;SDS011;9206;50.994;4.538;2023-09-30T05:26:05;6.40;;;5.50;;
18162;SDS011;9206;50.994;4.538;2023-09-30T05:29:04;9.03;;;6.80;;
18162;SDS011;9206;50.994;4.538;2023-09-30T05:31:54;8.43;;;6.73;;
18162;SDS011;9206;50.994;4.538;2023-09-30T05:34:48;11.80;;;7.23;;
18162;SDS011;9206;50.994;4.538;2023-09-30T05:37:42;8.57;;;6.30;;
18162;SDS011;9206;50.994;4.538;2023-09-30T05:40:32;7.50;;;5.63;;
18162;SDS011;9206;50.994;4.538;2023-09-30T05:43:23;5.90;;;5.40;;
18162;SDS011;9206;50.994;4.538;2023-09-30T05:46:14;6.63;;;6.13;;
18162;SDS011;9206;50.994;4.538;2023-09-30T05:49:22;6.50;;;6.00;;
18162;SDS011;9206;50.994;4.538;2023-09-30T05:52:10;10.80;;;5.93;;
18162;SDS011;9206;50.994;4.538;2023-09-30T05:55:03;7.90;;;5.57;;
18162;SDS011;9206;50.994;4.538;2023-09-30T05:57:59;6.20;;;5.80;;
18162;SDS011;9206;50.994;4.538;2023-09-30T06:04:06;5.97;;;5.40;;
18162;SDS011;9206;50.994;4.538;2023-09-30T06:07:03;6.10;;;5.60;;
18162;SDS011;9206;50.994;4.538;2023-09-30T06:09:53;7.07;;;5.60;;
18162;SDS011;9206;50.994;4.538;2023-09-30T06:12:42;8.37;;;6.17;;
18162;SDS011;9206;50.994;4.538;2023-09-30T06:15:31;6.63;;;5.57;;
18162;SDS011;9206;50.994;4.538;2023-09-30T06:18:18;8.00;;;5.90;;
18162;SDS011;9206;50.994;4.538;2023-09-30T06:21:06;9.40;;;5.60;;
18162;SDS011;9206;50.994;4.538;2023-09-30T06:23:55;6.70;;;6.17;;
18162;SDS011;9206;50.994;4.538;2023-09-30T06:26:48;8.30;;;5.77;;
18162;SDS011;9206;50.994;4.538;2023-09-30T06:29:38;6.50;;;5.80;;
18162;SDS011;9206;50.994;4.538;2023-09-30T06:32:28;5.80;;;5.30;;
18162;SDS011;9206;50.994;4.538;2023-09-30T06:35:21;5.93;;;5.30;;
18162;SDS011;9206;50.994;4.538;2023-09-30T06:41:05;5.70;;;4.90;;
18162;SDS011;9206;50.994;4.538;2023-09-30T06:43:54;7.33;;;5.77;;
18162;SDS011;9206;50.994;4.538;2023-09-30T06:46:44;7.80;;;5.53;;
18162;SDS011;9206;50.994;4.538;2023-09-30T06:49:38;6.33;;;5.70;;
18162;SDS011;9206;50.994;4.538;2023-09-30T06:52:29;7.77;;;5.50;;
18162;SDS011;9206;50.994;4.538;2023-09-30T06:55:17;14.30;;;7.40;;
18162;SDS011;9206;50.994;4.538;2023-09-30T06:58:07;16.27;;;8.00;;
18162;SDS011;9206;50.994;4.538;2023-09-30T07:00:57;11.07;;;7.10;;
18162;SDS011;9206;50.994;4.538;2023-09-30T07:03:50;7.30;;;6.57;;
18162;SDS011;9206;50.994;4.538;2023-09-30T07:06:40;11.23;;;6.93;;
18162;SDS011;9206;50.994;4.538;2023-09-30T07:09:28;11.37;;;6.73;;
18162;SDS011;9206;50.994;4.538;2023-09-30T07:12:24;14.67;;;7.77;;
18162;SDS011;9206;50.994;4.538;2023-09-30T07:15:19;10.73;;;7.70;;
18162;SDS011;9206;50.994;4.538;2023-09-30T07:18:13;17.30;;;8.00;;
18162;SDS011;9206;50.994;4.538;2023-09-30T07:21:07;14.43;;;8.70;;
18162;SDS011;9206;50.994;4.538;2023-09-30T07:23:59;19.07;;;9.60;;
18162;SDS011;9206;50.994;4.538;2023-09-30T07:26:52;22.47;;;9.40;;
18162;SDS011;9206;50.994;4.538;2023-09-30T07:29:41;14.70;;;7.90;;
18162;SDS011;9206;50.994;4.538;2023-09-30T07:32:33;12.30;;;7.47;;
18162;SDS011;9206;50.994;4.538;2023-09-30T07:35:23;16.10;;;8.50;;
18162;SDS011;9206;50.994;4.538;2023-09-30T07:38:11;19.67;;;8.07;;
18162;SDS011;9206;50.994;4.538;2023-09-30T07:41:02;16.23;;;8.73;;
18162;SDS011;9206;50.994;4.538;2023-09-30T07:43:51;21.53;;;8.23;;
18162;SDS011;9206;50.994;4.538;2023-09-30T07:46:45;20.47;;;8.20;;
18162;SDS011;9206;50.994;4.538;2023-09-30T07:49:32;22.43;;;9.23;;
18162;SDS011;9206;50.994;4.538;2023-09-30T07:52:26;16.47;;;8.07;;
18162;SDS011;9206;50.994;4.538;2023-09-30T07:55:17;19.17;;;8.10;;
18162;SDS011;9206;50.994;4.538;2023-09-30T07:58:10;18.85;;;7.78;;
18162;SDS011;9206;50.994;4.538;2023-09-30T08:09:15;23.08;;;8.23;;
18162;SDS011;9206;50.994;4.538;2023-09-30T08:12:06;20.88;;;7.63;;
18162;SDS011;9206;50.994;4.538;2023-09-30T08:15:06;14.98;;;6.82;;
18162;SDS011;9206;50.994;4.538;2023-09-30T08:21:28;14.20;;;6.45;;
18162;SDS011;9206;50.994;4.538;2023-09-30T08:24:19;13.25;;;6.40;;
18162;SDS011;9206;50.994;4.538;2023-09-30T08:27:16;17.23;;;6.63;;
18162;SDS011;9206;50.994;4.538;2023-09-30T08:33:07;15.43;;;5.95;;
18162;SDS011;9206;50.994;4.538;2023-09-30T08:36:17;15.75;;;5.53;;
18162;SDS011;9206;50.994;4.538;2023-09-30T08:39:24;15.57;;;6.28;;
18162;SDS011;9206;50.994;4.538;2023-09-30T08:42:27;13.52;;;5.93;;
18162;SDS011;9206;50.994;4.538;2023-09-30T08:49:10;12.02;;;5.05;;
18162;SDS011;9206;50.994;4.538;2023-09-30T08:52:02;14.63;;;5.35;;
18162;SDS011;9206;50.994;4.538;2023-09-30T08:55:17;13.30;;;5.47;;
18162;SDS011;9206;50.994;4.538;2023-09-30T08:58:07;11.93;;;5.50;;
18162;SDS011;9206;50.994;4.538;2023-09-30T09:01:02;10.88;;;5.07;;
18162;SDS011;9206;50.994;4.538;2023-09-30T09:03:58;15.02;;;5.60;;
18162;SDS011;9206;50.994;4.538;2023-09-30T09:10:04;11.10;;;5.05;;
18162;SDS011;9206;50.994;4.538;2023-09-30T09:12:56;12.95;;;4.80;;
18162;SDS011;9206;50.994;4.538;2023-09-30T09:15:48;11.27;;;4.97;;
18162;SDS011;9206;50.994;4.538;2023-09-30T09:18:37;12.27;;;4.88;;
18162;SDS011;9206;50.994;4.538;2023-09-30T09:21:31;12.73;;;4.82;;
18162;SDS011;9206;50.994;4.538;2023-09-30T09:24:27;13.27;;;5.18;;
18162;SDS011;9206;50.994;4.538;2023-09-30T09:27:19;11.93;;;5.35;;
18162;SDS011;9206;50.994;4.538;2023-09-30T09:30:15;11.45;;;5.03;;
18162;SDS011;9206;50.994;4.538;2023-09-30T09:33:05;15.15;;;5.45;;
18162;SDS011;9206;50.994;4.538;2023-09-30T09:35:54;8.82;;;4.80;;
18162;SDS011;9206;50.994;4.538;2023-09-30T09:38:48;10.48;;;5.07;;
18162;SDS011;9206;50.994;4.538;2023-09-30T09:41:50;15.63;;;5.50;;
18162;SDS011;9206;50.994;4.538;2023-09-30T09:44:39;9.90;;;4.90;;
18162;SDS011;9206;50.994;4.538;2023-09-30T09:47:39;11.43;;;4.47;;
18162;SDS011;9206;50.994;4.538;2023-09-30T09:50:30;9.48;;;4.55;;
18162;SDS011;9206;50.994;4.538;2023-09-30T09:53:22;11.25;;;4.55;;
18162;SDS011;9206;50.994;4.538;2023-09-30T09:56:19;11.07;;;4.88;;
18162;SDS011;9206;50.994;4.538;2023-09-30T09:59:18;9.25;;;5.10;;
18162;SDS011;9206;50.994;4.538;2023-09-30T10:05:02;8.65;;;3.50;;
18162;SDS011;9206;50.994;4.538;2023-09-30T10:07:54;7.97;;;3.75;;
18162;SDS011;9206;50.994;4.538;2023-09-30T10:10:49;7.13;;;3.55;;
18162;SDS011;9206;50.994;4.538;2023-09-30T10:13:55;7.40;;;3.60;;
18162;SDS011;9206;50.994;4.538;2023-09-30T10:16:54;10.30;;;4.13;;
18162;SDS011;9206;50.994;4.538;2023-09-30T10:20:03;6.63;;;3.75;;
18162;SDS011;9206;50.994;4.538;2023-09-30T10:26:20;6.65;;;3.55;;
18162;SDS011;9206;50.994;4.538;2023-09-30T10:29:38;13.48;;;4.07;;
18162;SDS011;9206;50.994;4.538;2023-09-30T10:35:53;8.15;;;3.60;;
18162;SDS011;9206;50.994;4.538;2023-09-30T10:38:57;7.93;;;3.28;;
18162;SDS011;9206;50.994;4.538;2023-09-30T10:41:58;5.07;;;3.00;;
18162;SDS011;9206;50.994;4.538;2023-09-30T10:44:50;9.93;;;3.00;;
18162;SDS011;9206;50.994;4.538;2023-09-30T10:47:45;5.68;;;3.63;;
18162;SDS011;9206;50.994;4.538;2023-09-30T10:50:49;4.28;;;3.00;;
18162;SDS011;9206;50.994;4.538;2023-09-30T10:56:49;9.38;;;3.42;;
18162;SDS011;9206;50.994;4.538;2023-09-30T10:59:38;8.38;;;3.35;;
18162;SDS011;9206;50.994;4.538;2023-09-30T11:02:26;5.40;;;3.38;;
18162;SDS011;9206;50.994;4.538;2023-09-30T11:05:14;9.25;;;3.38;;
18162;SDS011;9206;50.994;4.538;2023-09-30T11:08:07;5.88;;;3.15;;
18162;SDS011;9206;50.994;4.538;2023-09-30T11:10:57;7.72;;;2.78;;
18162;SDS011;9206;50.994;4.538;2023-09-30T11:13:47;7.47;;;3.45;;
18162;SDS011;9206;50.994;4.538;2023-09-30T11:16:43;6.75;;;3.22;;
18162;SDS011;9206;50.994;4.538;2023-09-30T11:19:34;4.50;;;2.80;;
18162;SDS011;9206;50.994;4.538;2023-09-30T11:22:22;5.53;;;3.17;;
18162;SDS011;9206;50.994;4.538;2023-09-30T11:25:14;4.25;;;3.03;;
18162;SDS011;9206;50.994;4.538;2023-09-30T11:28:15;9.23;;;3.85;;
18162;SDS011;9206;50.994;4.538;2023-09-30T11:34:02;7.85;;;3.55;;
18162;SDS011;9206;50.994;4.538;2023-09-30T11:36:53;7.78;;;3.20;;
18162;SDS011;9206;50.994;4.538;2023-09-30T11:39:44;5.55;;;3.00;;
18162;SDS011;9206;50.994;4.538;2023-09-30T11:42:31;5.57;;;3.30;;
18162;SDS011;9206;50.994;4.538;2023-09-30T11:45:21;6.22;;;3.03;;
18162;SDS011;9206;50.994;4.538;2023-09-30T11:48:18;4.15;;;2.95;;
18162;SDS011;9206;50.994;4.538;2023-09-30T11:51:06;4.80;;;2.90;;
18162;SDS011;9206;50.994;4.538;2023-09-30T11:53:56;5.57;;;3.00;;
18162;SDS011;9206;50.994;4.538;2023-09-30T11:56:44;4.55;;;3.05;;
18162;SDS011;9206;50.994;4.538;2023-09-30T11:59:33;8.40;;;2.90;;
18162;SDS011;9206;50.994;4.538;2023-09-30T12:02:23;5.22;;;3.10;;
18162;SDS011;9206;50.994;4.538;2023-09-30T12:05:10;5.45;;;2.78;;
18162;SDS011;9206;50.994;4.538;2023-09-30T12:07:59;7.32;;;2.65;;
18162;SDS011;9206;50.994;4.538;2023-09-30T12:10:48;5.20;;;3.13;;
18162;SDS011;9206;50.994;4.538;2023-09-30T12:13:36;5.13;;;3.00;;
18162;SDS011;9206;50.994;4.538;2023-09-30T12:16:24;4.20;;;2.47;;
18162;SDS011;9206;50.994;4.538;2023-09-30T12:19:15;5.22;;;3.08;;
18162;SDS011;9206;50.994;4.538;2023-09-30T12:22:07;5.30;;;2.80;;
18162;SDS011;9206;50.994;4.538;2023-09-30T12:24:58;6.85;;;3.10;;
18162;SDS011;9206;50.994;4.538;2023-09-30T12:27:52;5.60;;;3.00;;
18162;SDS011;9206;50.994;4.538;2023-09-30T12:30:43;8.88;;;3.40;;
18162;SDS011;9206;50.994;4.538;2023-09-30T12:33:32;8.55;;;3.05;;
18162;SDS011;9206;50.994;4.538;2023-09-30T12:36:24;4.57;;;3.00;;
18162;SDS011;9206;50.994;4.538;2023-09-30T12:39:15;7.18;;;3.15;;
18162;SDS011;9206;50.994;4.538;2023-09-30T12:42:03;6.10;;;2.90;;
18162;SDS011;9206;50.994;4.538;2023-09-30T12:44:57;5.57;;;2.88;;
18162;SDS011;9206;50.994;4.538;2023-09-30T12:51:05;3.72;;;2.90;;
18162;SDS011;9206;50.994;4.538;2023-09-30T12:53:58;4.75;;;3.08;;
18162;SDS011;9206;50.994;4.538;2023-09-30T12:56:48;7.75;;;3.33;;
18162;SDS011;9206;50.994;4.538;2023-09-30T12:59:39;10.73;;;3.20;;
18162;SDS011;9206;50.994;4.538;2023-09-30T13:02:30;4.75;;;3.00;;
18162;SDS011;9206;50.994;4.538;2023-09-30T13:05:24;6.57;;;3.50;;
18162;SDS011;9206;50.994;4.538;2023-09-30T13:08:13;7.65;;;3.15;;
18162;SDS011;9206;50.994;4.538;2023-09-30T13:11:03;4.70;;;3.10;;
18162;SDS011;9206;50.994;4.538;2023-09-30T13:13:51;7.28;;;3.15;;
18162;SDS011;9206;50.994;4.538;2023-09-30T13:16:39;7.38;;;3.47;;
18162;SDS011;9206;50.994;4.538;2023-09-30T13:19:28;10.05;;;3.13;;
18162;SDS011;9206;50.994;4.538;2023-09-30T13:22:24;6.88;;;3.15;;
18162;SDS011;9206;50.994;4.538;2023-09-30T13:25:13;7.28;;;3.33;;
18162;SDS011;9206;50.994;4.538;2023-09-30T13:28:04;9.32;;;2.92;;
18162;SDS011;9206;50.994;4.538;2023-09-30T13:30:51;6.53;;;3.10;;
18162;SDS011;9206;50.994;4.538;2023-09-30T13:33:40;4.97;;;3.38;;
18162;SDS011;9206;50.994;4.538;2023-09-30T13:36:27;6.05;;;3.10;;
18162;SDS011;9206;50.994;4.538;2023-09-30T13:39:15;4.63;;;2.88;;
18162;SDS011;9206;50.994;4.538;2023-09-30T13:42:04;5.85;;;3.20;;
18162;SDS011;9206;50.994;4.538;2023-09-30T13:45:00;6.13;;;2.92;;
18162;SDS011;9206;50.994;4.538;2023-09-30T13:47:52;6.68;;;3.08;;
18162;SDS011;9206;50.994;4.538;2023-09-30T13:50:39;6.72;;;3.25;;
18162;SDS011;9206;50.994;4.538;2023-09-30T13:53:30;3.33;;;2.88;;
18162;SDS011;9206;50.994;4.538;2023-09-30T13:56:17;4.50;;;2.75;;
18162;SDS011;9206;50.994;4.538;2023-09-30T13:59:06;7.85;;;3.03;;
18162;SDS011;9206;50.994;4.538;2023-09-30T14:01:55;4.00;;;2.78;;
18162;SDS011;9206;50.994;4.538;2023-09-30T14:04:48;5.32;;;2.97;;
18162;SDS011;9206;50.994;4.538;2023-09-30T14:07:37;4.50;;;2.78;;
18162;SDS011;9206;50.994;4.538;2023-09-30T14:10:26;5.20;;;2.53;;
18162;SDS011;9206;50.994;4.538;2023-09-30T14:13:20;7.25;;;3.05;;
18162;SDS011;9206;50.994;4.538;2023-09-30T14:16:09;7.00;;;2.80;;
18162;SDS011;9206;50.994;4.538;2023-09-30T14:19:01;4.40;;;3.03;;
18162;SDS011;9206;50.994;4.538;2023-09-30T14:21:55;4.72;;;2.78;;
18162;SDS011;9206;50.994;4.538;2023-09-30T14:24:43;6.35;;;3.03;;
18162;SDS011;9206;50.994;4.538;2023-09-30T14:27:31;7.07;;;2.83;;
18162;SDS011;9206;50.994;4.538;2023-09-30T14:33:10;5.20;;;2.70;;
18162;SDS011;9206;50.994;4.538;2023-09-30T14:35:59;6.55;;;3.20;;
18162;SDS011;9206;50.994;4.538;2023-09-30T14:38:47;4.78;;;2.67;;
18162;SDS011;9206;50.994;4.538;2023-09-30T14:41:35;5.30;;;3.08;;
18162;SDS011;9206;50.994;4.538;2023-09-30T14:44:24;5.22;;;2.95;;
18162;SDS011;9206;50.994;4.538;2023-09-30T14:47:11;5.72;;;2.65;;
18162;SDS011;9206;50.994;4.538;2023-09-30T14:49:59;5.60;;;2.92;;
18162;SDS011;9206;50.994;4.538;2023-09-30T14:52:59;3.58;;;2.75;;
18162;SDS011;9206;50.994;4.538;2023-09-30T14:55:50;4.82;;;2.47;;
18162;SDS011;9206;50.994;4.538;2023-09-30T14:58:41;5.72;;;2.67;;
18162;SDS011;9206;50.994;4.538;2023-09-30T15:01:39;5.50;;;2.50;;
18162;SDS011;9206;50.994;4.538;2023-09-30T15:04:36;5.90;;;3.00;;
18162;SDS011;9206;50.994;4.538;2023-09-30T15:11:12;2.70;;;2.40;;
18162;SDS011;9206;50.994;4.538;2023-09-30T15:16:53;3.88;;;2.70;;
18162;SDS011;9206;50.994;4.538;2023-09-30T15:19:47;6.05;;;2.92;;
18162;SDS011;9206;50.994;4.538;2023-09-30T15:22:34;6.45;;;2.65;;
18162;SDS011;9206;50.994;4.538;2023-09-30T15:25:24;6.22;;;2.88;;
18162;SDS011;9206;50.994;4.538;2023-09-30T15:28:11;6.28;;;3.33;;
18162;SDS011;9206;50.994;4.538;2023-09-30T15:30:59;7.45;;;2.70;;
18162;SDS011;9206;50.994;4.538;2023-09-30T15:33:48;8.82;;;3.00;;
18162;SDS011;9206;50.994;4.538;2023-09-30T15:36:35;4.45;;;2.95;;
18162;SDS011;9206;50.994;4.538;2023-09-30T15:42:35;6.25;;;3.10;;
18162;SDS011;9206;50.994;4.538;2023-09-30T15:45:25;4.70;;;3.00;;
18162;SDS011;9206;50.994;4.538;2023-09-30T15:48:13;5.10;;;3.03;;
18162;SDS011;9206;50.994;4.538;2023-09-30T15:51:01;5.07;;;2.42;;
18162;SDS011;9206;50.994;4.538;2023-09-30T15:53:55;3.50;;;2.40;;
18162;SDS011;9206;50.994;4.538;2023-09-30T15:56:42;5.20;;;3.00;;
18162;SDS011;9206;50.994;4.538;2023-09-30T15:59:33;6.18;;;3.10;;
18162;SDS011;9206;50.994;4.538;2023-09-30T16:02:23;4.55;;;2.80;;
18162;SDS011;9206;50.994;4.538;2023-09-30T16:05:10;6.03;;;2.85;;
18162;SDS011;9206;50.994;4.538;2023-09-30T16:07:58;4.10;;;3.00;;
18162;SDS011;9206;50.994;4.538;2023-09-30T16:10:56;4.32;;;2.95;;
18162;SDS011;9206;50.994;4.538;2023-09-30T16:13:47;9.40;;;3.40;;
18162;SDS011;9206;50.994;4.538;2023-09-30T16:16:38;5.25;;;2.83;;
18162;SDS011;9206;50.994;4.538;2023-09-30T16:19:26;5.43;;;3.55;;
18162;SDS011;9206;50.994;4.538;2023-09-30T16:22:13;3.72;;;2.88;;
18162;SDS011;9206;50.994;4.538;2023-09-30T16:25:05;4.18;;;2.78;;
18162;SDS011;9206;50.994;4.538;2023-09-30T16:27:55;3.08;;;2.50;;
18162;SDS011;9206;50.994;4.538;2023-09-30T16:30:45;4.75;;;2.65;;
18162;SDS011;9206;50.994;4.538;2023-09-30T16:33:37;6.78;;;3.13;;
18162;SDS011;9206;50.994;4.538;2023-09-30T16:36:31;4.85;;;2.70;;
18162;SDS011;9206;50.994;4.538;2023-09-30T16:39:19;6.78;;;2.95;;
18162;SDS011;9206;50.994;4.538;2023-09-30T16:42:07;7.65;;;2.78;;
18162;SDS011;9206;50.994;4.538;2023-09-30T16:44:56;5.88;;;2.90;;
18162;SDS011;9206;50.994;4.538;2023-09-30T16:47:49;9.52;;;3.53;;
18162;SDS011;9206;50.994;4.538;2023-09-30T16:53:30;5.80;;;3.08;;
18162;SDS011;9206;50.994;4.538;2023-09-30T16:56:17;6.85;;;2.92;;
18162;SDS011;9206;50.994;4.538;2023-09-30T16:59:11;4.05;;;2.53;;
18162;SDS011;9206;50.994;4.538;2023-09-30T17:02:02;4.25;;;2.50;;
18162;SDS011;9206;50.994;4.538;2023-09-30T17:04:53;5.97;;;2.85;;
18162;SDS011;9206;50.994;4.538;2023-09-30T17:07:44;5.50;;;3.83;;
18162;SDS011;9206;50.994;4.538;2023-09-30T17:10:35;5.55;;;3.55;;
18162;SDS011;9206;50.994;4.538;2023-09-30T17:13:23;6.45;;;3.70;;
18162;SDS011;9206;50.994;4.538;2023-09-30T17:19:10;9.18;;;5.10;;
18162;SDS011;9206;50.994;4.538;2023-09-30T17:22:04;7.72;;;3.53;;
18162;SDS011;9206;50.994;4.538;2023-09-30T17:24:56;10.73;;;6.20;;
18162;SDS011;9206;50.994;4.538;2023-09-30T17:27:47;10.55;;;8.80;;
18162;SDS011;9206;50.994;4.538;2023-09-30T17:30:36;13.68;;;8.27;;
18162;SDS011;9206;50.994;4.538;2023-09-30T17:33:24;10.55;;;8.02;;
18162;SDS011;9206;50.994;4.538;2023-09-30T17:36:17;7.35;;;4.20;;
18162;SDS011;9206;50.994;4.538;2023-09-30T17:39:04;5.65;;;3.80;;
18162;SDS011;9206;50.994;4.538;2023-09-30T17:41:54;5.63;;;3.55;;
18162;SDS011;9206;50.994;4.538;2023-09-30T17:44:42;5.57;;;4.95;;
18162;SDS011;9206;50.994;4.538;2023-09-30T17:47:30;8.88;;;5.53;;
18162;SDS011;9206;50.994;4.538;2023-09-30T17:50:17;12.18;;;6.30;;
18162;SDS011;9206;50.994;4.538;2023-09-30T17:53:11;12.68;;;6.30;;
18162;SDS011;9206;50.994;4.538;2023-09-30T17:55:58;10.07;;;6.70;;
18162;SDS011;9206;50.994;4.538;2023-09-30T17:58:47;14.48;;;8.18;;
18162;SDS011;9206;50.994;4.538;2023-09-30T18:01:38;21.75;;;11.30;;
18162;SDS011;9206;50.994;4.538;2023-09-30T18:04:29;12.85;;;7.93;;
18162;SDS011;9206;50.994;4.538;2023-09-30T18:07:22;9.73;;;6.03;;
18162;SDS011;9206;50.994;4.538;2023-09-30T18:10:16;11.02;;;4.05;;
18162;SDS011;9206;50.994;4.538;2023-09-30T18:13:06;12.20;;;5.10;;
18162;SDS011;9206;50.994;4.538;2023-09-30T18:15:55;5.32;;;3.95;;
18162;SDS011;9206;50.994;4.538;2023-09-30T18:18:42;8.57;;;3.35;;
18162;SDS011;9206;50.994;4.538;2023-09-30T18:21:36;10.32;;;4.35;;
18162;SDS011;9206;50.994;4.538;2023-09-30T18:24:29;8.30;;;3.42;;
18162;SDS011;9206;50.994;4.538;2023-09-30T18:27:17;9.27;;;4.00;;
18162;SDS011;9206;50.994;4.538;2023-09-30T18:30:05;12.45;;;7.00;;
18162;SDS011;9206;50.994;4.538;2023-09-30T18:33:00;31.20;;;19.58;;
18162;SDS011;9206;50.994;4.538;2023-09-30T18:35:53;8.10;;;6.00;;
18162;SDS011;9206;50.994;4.538;2023-09-30T18:38:47;10.88;;;5.30;;
18162;SDS011;9206;50.994;4.538;2023-09-30T18:44:26;11.48;;;7.13;;
18162;SDS011;9206;50.994;4.538;2023-09-30T18:47:14;17.13;;;9.23;;
18162;SDS011;9206;50.994;4.538;2023-09-30T18:50:07;28.15;;;12.93;;
18162;SDS011;9206;50.994;4.538;2023-09-30T18:53:01;19.73;;;10.05;;
18162;SDS011;9206;50.994;4.538;2023-09-30T18:55:54;18.55;;;10.55;;
18162;SDS011;9206;50.994;4.538;2023-09-30T18:58:52;10.80;;;6.40;;
18162;SDS011;9206;50.994;4.538;2023-09-30T19:01:45;10.77;;;6.00;;
18162;SDS011;9206;50.994;4.538;2023-09-30T19:04:52;11.80;;;6.28;;
18162;SDS011;9206;50.994;4.538;2023-09-30T19:07:42;7.07;;;5.15;;
18162;SDS011;9206;50.994;4.538;2023-09-30T19:10:32;8.07;;;4.78;;
18162;SDS011;9206;50.994;4.538;2023-09-30T19:13:20;5.23;;;3.93;;
18162;SDS011;9206;50.994;4.538;2023-09-30T19:16:08;5.80;;;4.07;;
18162;SDS011;9206;50.994;4.538;2023-09-30T19:19:01;5.00;;;4.25;;
18162;SDS011;9206;50.994;4.538;2023-09-30T19:21:56;8.20;;;3.97;;
18162;SDS011;9206;50.994;4.538;2023-09-30T19:24:46;6.10;;;3.77;;